Volga, Iowa
Current Conditions -  °F | °C
As of 8:15 AM on Sunday 25 Jan 2015 (Local Time) from KOLZ Reporting Station
Light Snow Light Snow  
Wind Chill: 18°   Ceiling: 300
Heat Index: 30°   Visibility: 1.2mi
Dew Point: 27°   Wind: 20mph
Humidity: 86%   Direction: 50°NE
Pressure: 29.78"   Gusts: 26mph
Location:  42.8°N, 91.54°W
Report Text: KOLZ 251415Z AUTO 05017G23KT 1 1/4SM -SN BKN003 BKN010 OVC018 M01/M03 A2978 RMK AO2
Loading
Personal Weather Stations






























Interactive Weather Map New forecast layout! Learn more

10-Day Weather Forecast

Advertisements
Track Severe Weather on mobile